Time;durP1;ratioP1;P1;durP2;ratioP2;P2;SDS_P1;SDS_P2;PMS_P1;PMS_P2;Temp;Humidity;BMP_temperature;BMP_pressure;BME280_temperature;BME280_humidity;BME280_pressure;Samples;Min_cycle;Max_cycle;Signal;HPM_P1;HPM_P2
2023/02/22 00:01:34;;;;;;;28.50;9.57;;;;;;;6.17;100.00;101145.41;7399551;19;20470;-44
2023/02/22 00:04:09;;;;;;;33.30;10.97;;;;;;;6.14;100.00;101146.09;7395128;19;20788;-45
2023/02/22 00:06:38;;;;;;;33.40;9.90;;;;;;;6.16;100.00;101148.75;7400747;19;20437;-46
2023/02/22 00:09:08;;;;;;;29.93;9.70;;;;;;;6.18;100.00;101140.41;7396484;19;20451;-46
2023/02/22 00:11:37;;;;;;;28.47;9.63;;;;;;;6.20;100.00;101141.38;7399630;19;21052;-46
2023/02/22 00:14:07;;;;;;;28.40;8.33;;;;;;;6.18;100.00;101140.41;7394678;19;20425;-45
2023/02/22 00:16:36;;;;;;;29.60;9.53;;;;;;;6.18;100.00;101134.38;7398760;19;20423;-45
2023/02/22 00:19:12;;;;;;;24.40;9.10;;;;;;;6.16;100.00;101130.81;7385705;19;20419;-46
2023/02/22 00:21:43;;;;;;;28.40;8.73;;;;;;;6.16;100.00;101130.81;7398030;19;20433;-46
2023/02/22 00:24:21;;;;;;;28.67;10.50;;;;;;;6.13;100.00;101130.59;7395084;19;20784;-47
2023/02/22 00:26:54;;;;;;;30.30;9.23;;;;;;;6.16;100.00;101136.81;7400482;19;20434;-45
2023/02/22 00:29:24;;;;;;;33.70;10.07;;;;;;;6.08;100.00;101128.66;7394768;19;20446;-46
2023/02/22 00:32:00;;;;;;;26.63;10.37;;;;;;;6.08;100.00;101138.00;7398748;19;20490;-46
2023/02/22 00:34:32;;;;;;;27.40;9.87;;;;;;;6.16;100.00;101131.69;7394965;19;20458;-44
2023/02/22 00:37:03;;;;;;;37.57;10.97;;;;;;;6.06;100.00;101142.16;7395593;19;20402;-47
2023/02/22 00:39:32;;;;;;;29.77;10.20;;;;;;;6.04;100.00;101134.34;7395673;19;20437;-45
2023/02/22 00:42:02;;;;;;;37.43;9.83;;;;;;;6.09;100.00;101124.41;7395719;19;20518;-46
2023/02/22 00:44:32;;;;;;;32.97;10.97;;;;;;;6.08;100.00;101128.66;7389923;19;20490;-46
2023/02/22 00:47:03;;;;;;;40.97;10.20;;;;;;;6.11;100.00;101132.19;7399015;19;20398;-45
2023/02/22 00:49:35;;;;;;;30.13;9.90;;;;;;;6.05;100.00;101133.56;7394871;19;20434;-47
2023/02/22 00:52:06;;;;;;;25.97;11.10;;;;;;;6.11;100.00;101132.19;7396730;19;20446;-45
2023/02/22 00:54:36;;;;;;;36.50;11.53;;;;;;;6.14;100.00;101124.69;7394256;19;20441;-46
2023/02/22 00:57:05;;;;;;;29.43;10.17;;;;;;;6.13;100.00;101130.59;7398403;19;20441;-46
2023/02/22 00:59:35;;;;;;;35.90;11.40;;;;;;;6.17;100.00;101130.03;7394885;19;20457;-46
2023/02/22 01:02:04;;;;;;;35.87;10.03;;;;;;;6.17;100.00;101133.50;7395733;19;20439;-44
2023/02/22 01:04:37;;;;;;;22.63;9.67;;;;;;;6.19;100.00;101136.13;7393237;19;20446;-46
2023/02/22 01:07:07;;;;;;;80.33;30.13;;;;;;;6.37;100.00;101138.13;7399080;19;20405;-45
2023/02/22 01:09:38;;;;;;;67.10;20.50;;;;;;;6.54;100.00;101127.28;7393873;19;20454;-43
2023/02/22 01:12:08;;;;;;;53.63;21.23;;;;;;;6.68;100.00;101124.72;7396651;19;20448;-46
2023/02/22 01:14:38;;;;;;;41.20;14.73;;;;;;;6.55;100.00;101123.94;7393738;19;22049;-48
2023/02/22 01:17:09;;;;;;;43.17;15.20;;;;;;;6.51;100.00;101119.38;7396912;19;20963;-46
2023/02/22 01:19:43;;;;;;;36.60;12.07;;;;;;;6.50;100.00;101117.63;7378617;19;21181;-45
2023/02/22 01:22:12;;;;;;;35.83;11.40;;;;;;;6.38;100.00;101121.97;7395660;19;20452;-47
2023/02/22 01:24:42;;;;;;;59.47;24.67;;;;;;;6.50;100.00;101125.31;7394516;19;20532;-46
2023/02/22 01:27:12;;;;;;;46.67;16.23;;;;;;;6.47;100.00;101130.25;7398607;19;20763;-45
2023/02/22 01:29:42;;;;;;;43.67;13.97;;;;;;;6.44;100.00;101132.59;7394154;19;20439;-46
2023/02/22 01:32:12;;;;;;;50.40;16.00;;;;;;;6.34;100.00;101129.47;7395240;19;20437;-44
2023/02/22 01:34:45;;;;;;;44.17;14.10;;;;;;;6.28;100.00;101131.63;7395956;19;20427;-46
2023/02/22 01:37:14;;;;;;;45.33;13.83;;;;;;;6.31;100.00;101134.38;7396883;19;20411;-43
2023/02/22 01:39:44;;;;;;;52.37;14.80;;;;;;;6.41;100.00;101135.00;7393321;19;20450;-46
2023/02/22 01:42:13;;;;;;;38.40;11.73;;;;;;;6.37;100.00;101126.22;7394892;19;20433;-45
2023/02/22 01:44:43;;;;;;;46.00;14.13;;;;;;;6.48;100.00;101125.22;7392377;19;20432;-46
2023/02/22 01:47:12;;;;;;;43.47;12.57;;;;;;;6.41;100.00;101124.75;7396742;19;20949;-46
2023/02/22 01:49:47;;;;;;;46.50;12.57;;;;;;;6.48;100.00;101125.22;7393655;19;20427;-45
2023/02/22 01:52:20;;;;;;;53.20;12.97;;;;;;;6.37;100.00;101122.75;7395044;19;20822;-46
2023/02/22 01:54:51;;;;;;;44.93;13.33;;;;;;;6.28;100.00;101123.94;7392591;19;20442;-45
2023/02/22 01:57:25;;;;;;;39.70;12.67;;;;;;;6.21;100.00;101132.03;7394347;19;20421;-44
2023/02/22 01:59:57;;;;;;;52.37;14.03;;;;;;;6.19;100.00;101133.56;7391436;19;20470;-46
2023/02/22 02:02:27;;;;;;;37.20;11.50;;;;;;;6.22;100.00;101131.22;7395374;19;20447;-43
2023/02/22 02:04:59;;;;;;;52.10;12.33;;;;;;;6.18;100.00;101130.16;7391725;19;20993;-44
2023/02/22 02:07:29;;;;;;;46.13;12.87;;;;;;;6.27;100.00;101132.44;7396151;19;20419;-46
2023/02/22 02:10:00;;;;;;;58.80;14.93;;;;;;;6.49;100.00;101133.81;7392324;19;20441;-46
2023/02/22 02:12:33;;;;;;;54.60;13.33;;;;;;;6.59;100.00;101123.34;7388954;19;20461;-46
2023/02/22 02:15:24;;;;;;;74.90;13.27;;;;;;;6.48;100.00;101109.81;7390802;19;20809;-46
2023/02/22 02:17:56;;;;;;;47.23;13.37;;;;;;;6.69;100.00;101113.66;7395072;19;20404;-46
2023/02/22 02:20:31;;;;;;;51.13;12.70;;;;;;;6.58;100.00;101102.75;7380322;19;20435;-45
2023/02/22 02:23:09;;;;;;;71.60;14.10;;;;;;;6.51;100.00;101100.59;7388125;19;20446;-47
2023/02/22 02:26:02;;;;;;;66.47;13.00;;;;;;;6.38;100.00;101104.03;7392473;19;20423;-46
2023/02/22 02:28:59;;;;;;;54.53;14.73;;;;;;;6.53;100.00;101107.59;7394815;19;20767;-46
2023/02/22 02:32:13;;;;;;;59.23;13.67;;;;;;;6.50;100.00;101106.50;7393988;19;20427;-46
2023/02/22 02:34:51;;;;;;;71.63;13.67;;;;;;;6.77;100.00;101104.78;7392351;19;20436;-46
2023/02/22 02:37:25;;;;;;;55.23;13.20;;;;;;;6.69;100.00;101098.28;7394324;19;20423;-46
2023/02/22 02:39:58;;;;;;;56.73;13.07;;;;;;;6.59;100.00;101097.72;7392573;19;20438;-44
2023/02/22 02:42:34;;;;;;;52.83;11.53;;;;;;;6.47;100.00;101096.94;7392957;19;20427;-45
2023/02/22 02:45:08;;;;;;;51.07;11.83;;;;;;;6.66;100.00;101093.84;7392597;19;20434;-46
2023/02/22 02:47:40;;;;;;;50.30;12.43;;;;;;;6.61;100.00;101091.00;7395897;19;20491;-46
2023/02/22 02:50:15;;;;;;;54.97;12.30;;;;;;;6.79;100.00;101090.38;7384882;19;20439;-46
2023/02/22 02:52:49;;;;;;;56.77;12.30;;;;;;;6.77;100.00;101081.69;7392282;19;20809;-46
2023/02/22 02:55:19;;;;;;;50.07;12.70;;;;;;;6.72;100.00;101085.66;7392720;19;20803;-47
2023/02/22 02:57:48;;;;;;;70.37;14.33;;;;;;;6.73;100.00;101077.19;7393277;19;20415;-48
2023/02/22 03:00:23;;;;;;;54.07;13.93;;;;;;;6.97;100.00;101087.19;7389740;19;20431;-46
2023/02/22 03:03:00;;;;;;;59.03;12.10;;;;;;;7.07;100.00;101078.38;7390885;19;20453;-46
2023/02/22 03:05:47;;;;;;;65.63;13.60;;;;;;;6.91;100.00;101074.00;7390335;19;20442;-44
2023/02/22 03:08:20;;;;;;;58.60;13.50;;;;;;;6.65;100.00;101073.25;7392706;19;20426;-46
2023/02/22 03:10:57;;;;;;;52.47;12.57;;;;;;;6.47;100.00;101079.00;7390085;19;20971;-46
2023/02/22 03:13:37;;;;;;;58.20;13.40;;;;;;;6.48;100.00;101089.31;7390523;19;20439;-46
2023/02/22 03:16:18;;;;;;;60.60;14.73;;;;;;;6.41;100.00;101086.28;7392690;19;20391;-44
2023/02/22 03:18:52;;;;;;;54.90;14.00;;;;;;;6.43;100.00;101089.81;7380268;19;20427;-46
2023/02/22 03:21:28;;;;;;;54.17;15.00;;;;;;;6.36;100.00;101096.22;7392019;19;20442;-45
2023/02/22 03:24:04;;;;;;;50.00;13.33;;;;;;;6.42;100.00;101083.81;7387735;19;20454;-44
2023/02/22 03:26:39;;;;;;;60.63;15.53;;;;;;;6.40;100.00;101084.53;7393185;19;20404;-44
2023/02/22 03:29:11;;;;;;;64.00;16.23;;;;;;;6.35;100.00;101082.53;7389688;19;20430;-46
2023/02/22 03:31:47;;;;;;;57.93;14.63;;;;;;;6.72;100.00;101068.59;7392121;19;20522;-45
2023/02/22 03:34:20;;;;;;;46.93;13.60;;;;;;;6.81;100.00;101065.72;7391135;19;20450;-46
2023/02/22 03:36:57;;;;;;;57.50;15.37;;;;;;;6.71;100.00;101071.03;7393316;19;20770;-46
2023/02/22 03:39:29;;;;;;;59.10;15.50;;;;;;;6.51;100.00;101068.13;7389791;19;20446;-47
2023/02/22 03:42:03;;;;;;;47.57;14.00;;;;;;;6.75;100.00;101062.75;7391375;19;20513;-44
2023/02/22 03:44:34;;;;;;;56.27;14.30;;;;;;;6.71;100.00;101064.25;7390987;19;20779;-47
2023/02/22 03:47:07;;;;;;;40.33;14.20;;;;;;;6.64;100.00;101064.66;7393508;19;20786;-45
2023/02/22 03:49:40;;;;;;;43.43;14.40;;;;;;;6.53;100.00;101069.13;7385289;19;20454;-45
2023/02/22 03:52:12;;;;;;;40.27;13.00;;;;;;;6.55;100.00;101075.22;7391934;19;20439;-45
2023/02/22 03:54:42;;;;;;;47.90;15.00;;;;;;;6.74;100.00;101071.25;7391091;19;20455;-46
2023/02/22 03:57:15;;;;;;;47.23;14.83;;;;;;;6.83;100.00;101076.94;7392891;19;20403;-45
2023/02/22 03:59:45;;;;;;;50.60;15.13;;;;;;;6.68;100.00;101081.13;7388632;19;20474;-46
2023/02/22 04:02:17;;;;;;;52.70;14.00;;;;;;;6.66;100.00;101073.34;7391145;19;20431;-48
2023/02/22 04:04:47;;;;;;;36.83;13.40;;;;;;;6.67;100.00;101084.50;7389089;19;20434;-46
2023/02/22 04:07:20;;;;;;;41.90;14.70;;;;;;;6.68;100.00;101076.00;7392997;19;20410;-46
2023/02/22 04:09:49;;;;;;;44.10;13.90;;;;;;;6.72;100.00;101083.09;7389228;19;20445;-45
2023/02/22 04:12:19;;;;;;;38.27;13.73;;;;;;;6.52;100.00;101085.31;7386325;19;20454;-44
2023/02/22 04:14:48;;;;;;;44.27;15.70;;;;;;;6.54;100.00;101083.72;7389207;19;20446;-46
2023/02/22 04:17:18;;;;;;;44.03;13.90;;;;;;;6.89;100.00;101086.72;7392733;19;20404;-46
2023/02/22 04:19:47;;;;;;;42.50;13.17;;;;;;;6.68;100.00;101086.25;7389569;19;20981;-46
2023/02/22 04:22:20;;;;;;;38.57;13.30;;;;;;;6.62;100.00;101090.19;7396833;19;20453;-46
2023/02/22 04:24:50;;;;;;;40.30;14.40;;;;;;;6.67;100.00;101080.22;7396134;19;20438;-44
2023/02/22 04:27:19;;;;;;;40.07;13.37;;;;;;;6.61;100.00;101090.09;7399332;19;20410;-45
2023/02/22 04:29:49;;;;;;;41.57;12.20;;;;;;;6.62;100.00;101087.63;7395845;19;21092;-45
2023/02/22 04:32:21;;;;;;;41.50;12.67;;;;;;;6.81;100.00;101093.06;7396231;19;20447;-45
2023/02/22 04:34:51;;;;;;;42.27;11.00;;;;;;;6.87;100.00;101090.88;7396790;19;20434;-46
2023/02/22 04:37:23;;;;;;;42.50;13.07;;;;;;;6.88;100.00;101085.81;7399333;19;20811;-46
2023/02/22 04:39:52;;;;;;;35.73;12.23;;;;;;;6.75;100.00;101085.84;7396583;19;20442;-46
2023/02/22 04:42:22;;;;;;;31.70;10.07;;;;;;;6.82;100.00;101082.88;7396539;19;20828;-45
2023/02/22 04:44:51;;;;;;;29.10;11.57;;;;;;;6.78;100.00;101083.50;7396612;19;20552;-46
2023/02/22 04:47:21;;;;;;;33.80;10.80;;;;;;;6.93;100.00;101090.34;7398933;19;20427;-46
2023/02/22 04:49:50;;;;;;;34.67;11.03;;;;;;;6.73;100.00;101084.88;7396031;19;20452;-46
2023/02/22 04:52:22;;;;;;;32.33;11.93;;;;;;;6.65;100.00;101080.94;7396773;19;20442;-45
2023/02/22 04:54:52;;;;;;;23.13;9.57;;;;;;;6.59;100.00;101079.78;7395924;19;20446;-46
2023/02/22 04:57:21;;;;;;;32.80;10.33;;;;;;;6.55;100.00;101084.56;7399406;19;20408;-46
2023/02/22 04:59:51;;;;;;;33.70;10.73;;;;;;;6.76;100.00;101082.47;7395501;19;20439;-47
2023/02/22 05:02:21;;;;;;;26.80;10.57;;;;;;;6.66;100.00;101077.59;7396377;19;20446;-45
2023/02/22 05:04:50;;;;;;;26.67;10.43;;;;;;;6.60;100.00;101081.53;7395277;19;20435;-46
2023/02/22 05:07:23;;;;;;;32.63;10.93;;;;;;;6.52;100.00;101071.59;7398578;19;21123;-46
2023/02/22 05:09:52;;;;;;;28.40;10.80;;;;;;;6.67;100.00;101074.22;7396139;19;20435;-47
2023/02/22 05:12:21;;;;;;;33.00;9.73;;;;;;;6.82;100.00;101070.03;7396783;19;20822;-46
2023/02/22 05:14:51;;;;;;;25.67;10.97;;;;;;;6.76;100.00;101069.66;7394863;19;20443;-48
2023/02/22 05:17:21;;;;;;;28.27;10.87;;;;;;;6.77;100.00;101063.75;7398055;19;20926;-45
2023/02/22 05:19:50;;;;;;;27.33;10.80;;;;;;;6.88;100.00;101059.28;7392205;19;20443;-46
2023/02/22 05:22:23;;;;;;;31.10;12.20;;;;;;;6.67;100.00;101064.84;7395717;19;20467;-46
2023/02/22 05:24:53;;;;;;;29.73;11.30;;;;;;;6.62;100.00;101062.00;7394583;19;20433;-46
2023/02/22 05:27:23;;;;;;;28.07;10.47;;;;;;;6.69;100.00;101057.25;7398055;19;20427;-46
2023/02/22 05:29:52;;;;;;;27.00;10.03;;;;;;;6.65;100.00;101063.88;7394163;19;20438;-46
2023/02/22 05:32:22;;;;;;;24.93;9.27;;;;;;;6.57;100.00;101067.63;7395777;19;20435;-46
2023/02/22 05:34:51;;;;;;;29.43;10.17;;;;;;;6.51;100.00;101067.25;7394060;19;21014;-46
2023/02/22 05:37:23;;;;;;;28.63;10.47;;;;;;;6.54;100.00;101063.19;7397715;19;20443;-46
2023/02/22 05:39:54;;;;;;;24.43;9.93;;;;;;;6.61;100.00;101065.34;7392966;19;20685;-47
2023/02/22 05:42:24;;;;;;;28.77;9.67;;;;;;;6.59;100.00;101061.81;7395634;19;20419;-46
2023/02/22 05:44:53;;;;;;;25.73;10.10;;;;;;;6.59;100.00;101066.06;7393938;19;20435;-44
2023/02/22 05:47:22;;;;;;;28.07;9.60;;;;;;;6.45;100.00;101060.03;7397337;19;20412;-46
2023/02/22 05:49:52;;;;;;;25.90;10.90;;;;;;;6.57;100.00;101054.81;7393775;19;20427;-45
2023/02/22 05:52:24;;;;;;;30.40;10.83;;;;;;;6.58;100.00;101060.06;7394721;19;20455;-44
2023/02/22 05:54:53;;;;;;;26.40;10.57;;;;;;;6.48;100.00;101052.56;7394180;19;20427;-45
2023/02/22 05:57:23;;;;;;;23.77;10.20;;;;;;;6.58;100.00;101043.78;7396534;19;20399;-45
2023/02/22 05:59:52;;;;;;;31.37;11.17;;;;;;;6.60;100.00;101035.38;7392387;19;20442;-46
2023/02/22 06:02:22;;;;;;;25.90;11.20;;;;;;;6.82;100.00;101036.69;7394507;19;20467;-44
2023/02/22 06:04:51;;;;;;;25.50;10.90;;;;;;;6.56;100.00;101035.97;7392596;19;20471;-44
2023/02/22 06:07:24;;;;;;;29.97;12.90;;;;;;;6.57;100.00;101042.88;7396324;19;20410;-46
2023/02/22 06:09:53;;;;;;;31.10;11.30;;;;;;;6.56;100.00;101030.84;7392074;19;20468;-48
2023/02/22 06:12:23;;;;;;;34.43;11.57;;;;;;;6.63;100.00;101037.25;7394622;19;20439;-47
2023/02/22 06:14:52;;;;;;;36.13;11.93;;;;;;;6.72;100.00;101027.56;7391798;19;20437;-45
2023/02/22 06:17:21;;;;;;;32.47;12.07;;;;;;;6.76;100.00;101026.06;7396553;19;20406;-45
2023/02/22 06:19:51;;;;;;;40.43;13.50;;;;;;;6.75;100.00;101037.13;7389090;19;20443;-45
2023/02/22 06:22:23;;;;;;;37.83;13.30;;;;;;;6.68;100.00;101030.75;7394085;19;20439;-45
2023/02/22 06:24:54;;;;;;;41.70;12.60;;;;;;;6.47;100.00;101035.41;7392523;19;20435;-46
2023/02/22 06:27:26;;;;;;;38.67;12.10;;;;;;;6.47;100.00;101040.53;7396110;19;20423;-45
2023/02/22 06:29:55;;;;;;;36.37;12.80;;;;;;;6.42;100.00;101037.66;7390167;19;20443;-42
2023/02/22 06:32:25;;;;;;;45.43;13.57;;;;;;;6.34;100.00;101039.75;7394012;19;20454;-47
2023/02/22 06:34:54;;;;;;;43.10;15.40;;;;;;;6.31;100.00;101044.69;7390731;19;20431;-45
2023/02/22 06:37:26;;;;;;;45.83;15.50;;;;;;;6.37;100.00;101040.75;7395574;19;20417;-46
2023/02/22 06:39:55;;;;;;;40.77;12.70;;;;;;;6.34;100.00;101037.19;7389870;19;20431;-46
2023/02/22 06:42:28;;;;;;;51.40;14.20;;;;;;;6.33;100.00;101031.97;7392249;19;20449;-46
2023/02/22 06:44:58;;;;;;;46.13;14.90;;;;;;;6.33;100.00;101027.75;7389636;19;20435;-46
2023/02/22 06:47:27;;;;;;;47.20;14.60;;;;;;;6.38;100.00;101034.81;7395078;19;20757;-48
2023/02/22 06:49:58;;;;;;;47.33;14.27;;;;;;;6.33;100.00;101027.75;7389946;19;20451;-44
2023/02/22 06:52:32;;;;;;;49.60;16.17;;;;;;;6.37;100.00;101027.91;7393567;19;20431;-47
2023/02/22 06:55:02;;;;;;;50.10;14.93;;;;;;;6.49;100.00;101023.56;7390078;19;20431;-46
2023/02/22 06:57:31;;;;;;;52.43;15.17;;;;;;;6.44;100.00;101030.06;7395441;19;20415;-46
2023/02/22 07:00:00;;;;;;;52.33;16.53;;;;;;;6.36;100.00;101024.47;7389728;19;20446;-46
2023/02/22 07:02:30;;;;;;;50.27;15.60;;;;;;;6.38;100.00;101022.00;7393506;19;20452;-46
2023/02/22 07:04:59;;;;;;;47.90;15.53;;;;;;;6.44;100.00;101028.41;7390273;19;20987;-46
2023/02/22 07:07:29;;;;;;;62.30;17.23;;;;;;;6.45;100.00;101021.59;7394288;19;20439;-49
2023/02/22 07:10:01;;;;;;;57.37;16.73;;;;;;;6.57;100.00;101022.34;7389350;19;20450;-45
2023/02/22 07:12:30;;;;;;;57.20;17.30;;;;;;;6.54;100.00;101022.19;7393211;19;20439;-46
2023/02/22 07:15:00;;;;;;;54.53;15.53;;;;;;;6.55;100.00;101013.69;7388647;19;20473;-47
2023/02/22 07:17:29;;;;;;;55.13;16.47;;;;;;;6.47;100.00;101018.34;7394425;19;20407;-45
2023/02/22 07:19:58;;;;;;;47.60;16.20;;;;;;;6.58;100.00;101020.69;7388120;19;20469;-45
2023/02/22 07:22:29;;;;;;;48.30;15.40;;;;;;;6.56;100.00;101020.59;7392363;19;20889;-46
2023/02/22 07:25:01;;;;;;;56.60;18.40;;;;;;;6.59;100.00;101023.34;7392102;19;20486;-45
2023/02/22 07:27:31;;;;;;;58.60;17.30;;;;;;;6.57;100.00;101017.22;7394475;19;20419;-46
2023/02/22 07:30:00;;;;;;;60.87;16.73;;;;;;;6.62;100.00;101015.84;7392365;19;20442;-47
2023/02/22 07:32:30;;;;;;;61.77;17.83;;;;;;;6.53;100.00;101022.97;7392104;19;20439;-47
2023/02/22 07:35:01;;;;;;;55.30;17.70;;;;;;;6.53;100.00;101028.09;7388917;19;20425;-46
2023/02/22 07:37:31;;;;;;;61.87;17.20;;;;;;;6.54;100.00;101031.53;7394314;19;20407;-44
2023/02/22 07:40:03;;;;;;;59.17;18.47;;;;;;;6.50;100.00;101030.47;7388712;19;20453;-46
2023/02/22 07:42:32;;;;;;;55.93;18.97;;;;;;;6.51;100.00;101032.22;7392384;19;20439;-47
2023/02/22 07:45:02;;;;;;;54.53;17.77;;;;;;;6.60;100.00;101027.69;7386275;19;20440;-46
2023/02/22 07:47:31;;;;;;;52.33;16.30;;;;;;;6.62;100.00;101023.53;7393626;19;20416;-46
2023/02/22 07:50:00;;;;;;;56.13;18.97;;;;;;;6.70;100.00;101025.69;7388874;19;20418;-46
2023/02/22 07:52:30;;;;;;;47.60;17.60;;;;;;;6.65;100.00;101027.97;7391538;19;20483;-45
2023/02/22 07:55:02;;;;;;;49.13;14.90;;;;;;;6.71;100.00;101023.22;7392706;19;20981;-46
2023/02/22 07:57:32;;;;;;;55.73;19.30;;;;;;;6.72;100.00;101024.13;7399852;19;20474;-47
2023/02/22 08:00:01;;;;;;;61.43;17.80;;;;;;;6.78;100.00;101026.16;7394872;19;20814;-47
2023/02/22 08:02:31;;;;;;;51.07;17.37;;;;;;;6.74;100.00;101018.31;7395028;19;20445;-46
2023/02/22 08:05:00;;;;;;;49.57;18.13;;;;;;;6.70;100.00;101024.03;7396724;19;20506;-46
2023/02/22 08:07:30;;;;;;;51.53;16.20;;;;;;;6.72;100.00;101021.56;7400294;19;20417;-45
2023/02/22 08:10:06;;;;;;;58.33;16.90;;;;;;;6.71;100.00;101020.66;7395153;19;20450;-43
2023/02/22 08:12:36;;;;;;;53.10;17.00;;;;;;;6.82;100.00;101020.44;7391796;19;20450;-45
2023/02/22 08:15:06;;;;;;;49.03;16.60;;;;;;;6.81;100.00;101029.81;7393258;19;20450;-45
2023/02/22 08:17:37;;;;;;;43.50;15.30;;;;;;;6.76;100.00;101023.50;7400793;19;20395;-45
2023/02/22 08:20:09;;;;;;;45.63;16.27;;;;;;;6.80;100.00;101025.47;7369542;19;20419;-44
2023/02/22 08:22:39;;;;;;;43.20;15.50;;;;;;;6.77;100.00;101021.84;7398159;19;20439;-46
2023/02/22 08:25:11;;;;;;;39.63;15.10;;;;;;;6.75;100.00;101022.63;7395418;19;20451;-47
2023/02/22 08:27:40;;;;;;;36.50;15.60;;;;;;;6.79;100.00;101021.13;7399764;19;20403;-46
2023/02/22 08:30:14;;;;;;;39.43;15.23;;;;;;;7.10;100.00;101025.56;7394130;19;20454;-43
2023/02/22 08:32:44;;;;;;;38.50;15.80;;;;;;;7.09;100.00;101026.38;7395881;19;20795;-46
2023/02/22 08:35:13;;;;;;;34.43;13.43;;;;;;;7.14;100.00;101022.38;7394873;19;20958;-45
2023/02/22 08:37:44;;;;;;;33.30;14.07;;;;;;;7.21;100.00;101017.59;7400076;19;20399;-45
2023/02/22 08:40:20;;;;;;;32.90;15.60;;;;;;;7.24;100.00;101021.25;7394478;19;20510;-43
2023/02/22 08:42:49;;;;;;;34.60;13.97;;;;;;;7.25;100.00;101027.28;7397705;19;20441;-44
2023/02/22 08:45:19;;;;;;;37.13;15.00;;;;;;;7.27;100.00;101029.13;7394780;19;20442;-46
2023/02/22 08:47:48;;;;;;;31.93;14.17;;;;;;;7.25;100.00;101022.13;7398388;19;20415;-45
2023/02/22 08:50:22;;;;;;;37.57;14.67;;;;;;;7.39;100.00;101036.66;7393560;19;20466;-45
2023/02/22 08:52:52;;;;;;;34.20;14.20;;;;;;;7.49;100.00;101034.66;7396139;19;20435;-45
2023/02/22 08:55:26;;;;;;;32.07;13.27;;;;;;;7.41;100.00;101040.22;7392161;19;20435;-46
2023/02/22 08:57:55;;;;;;;29.70;13.70;;;;;;;7.40;100.00;101048.69;7398200;19;20760;-46
2023/02/22 09:00:25;;;;;;;29.83;12.67;;;;;;;7.50;100.00;101037.31;7392812;19;20439;-44
2023/02/22 09:02:54;;;;;;;33.73;13.50;;;;;;;7.37;100.00;101045.06;7395032;19;20828;-45
2023/02/22 09:05:24;;;;;;;34.63;13.90;;;;;;;7.41;100.00;101052.16;7395252;19;20446;-45
2023/02/22 09:07:53;;;;;;;33.47;13.73;;;;;;;7.41;100.00;101054.75;7398136;19;20407;-45
2023/02/22 09:10:29;;;;;;;31.20;13.77;;;;;;;7.38;100.00;101052.88;7396546;19;20435;-45
2023/02/22 09:12:59;;;;;;;28.87;13.17;;;;;;;7.53;100.00;101049.44;7395501;19;20458;-45
2023/02/22 09:15:30;;;;;;;28.43;13.47;;;;;;;7.52;100.00;101055.38;7392470;19;20442;-46
2023/02/22 09:18:00;;;;;;;28.90;13.00;;;;;;;7.51;100.00;101066.44;7397117;19;20411;-43
2023/02/22 09:20:29;;;;;;;26.80;13.20;;;;;;;7.49;100.00;101060.34;7392479;19;20442;-43
2023/02/22 09:23:01;;;;;;;36.23;14.00;;;;;;;7.51;100.00;101069.00;7395179;19;20471;-43
2023/02/22 09:25:35;;;;;;;29.07;13.90;;;;;;;7.54;100.00;101064.06;7393761;19;20443;-44
2023/02/22 09:28:04;;;;;;;29.00;14.47;;;;;;;7.50;100.00;101074.94;7398142;19;20403;-43
2023/02/22 09:30:35;;;;;;;35.10;14.43;;;;;;;7.61;100.00;101073.00;7392830;19;20451;-43
2023/02/22 09:33:08;;;;;;;31.53;14.60;;;;;;;7.73;100.00;101076.28;7395324;19;20522;-43
2023/02/22 09:35:41;;;;;;;32.23;13.77;;;;;;;7.74;100.00;101075.50;7393298;19;20974;-43
2023/02/22 09:38:11;;;;;;;33.97;14.50;;;;;;;7.73;100.00;101083.13;7397060;19;20431;-43
2023/02/22 09:40:46;;;;;;;32.63;14.63;;;;;;;7.72;100.00;101076.19;7391209;19;20979;-43
2023/02/22 09:43:36;;;;;;;37.83;16.37;;;;;;;7.61;100.00;101085.84;7395600;19;20427;-43
2023/02/22 09:46:17;;;;;;;33.80;14.07;;;;;;;7.57;100.00;101089.91;7394616;19;20462;-44
2023/02/22 09:48:56;;;;;;;37.10;13.80;;;;;;;7.66;100.00;101090.47;7393162;19;20442;-43
2023/02/22 09:51:30;;;;;;;30.10;14.63;;;;;;;7.69;100.00;101087.16;7396280;19;20423;-43
2023/02/22 09:54:01;;;;;;;36.57;14.43;;;;;;;7.64;100.00;101097.19;7392048;19;20439;-43
2023/02/22 09:56:35;;;;;;;32.10;13.37;;;;;;;7.63;100.00;101099.69;7396581;19;20414;-42
2023/02/22 09:59:07;;;;;;;34.77;14.97;;;;;;;7.69;100.00;101100.00;7393684;19;20438;-41
2023/02/22 10:01:42;;;;;;;33.37;14.40;;;;;;;7.76;100.00;101096.13;7395595;19;20467;-44
2023/02/22 10:04:17;;;;;;;27.50;12.17;;;;;;;7.83;100.00;101098.25;7388872;19;20482;-41
2023/02/22 10:07:04;;;;;;;29.83;14.40;;;;;;;7.89;100.00;101108.91;7395003;19;20433;-42
2023/02/22 10:09:36;;;;;;;33.67;13.53;;;;;;;7.97;100.00;101110.25;7392280;19;20439;-42
2023/02/22 10:12:12;;;;;;;31.53;12.90;;;;;;;8.03;100.00;101112.28;7394714;19;20462;-43
2023/02/22 10:15:10;;;;;;;30.70;13.70;;;;;;;7.95;100.00;101111.81;7393781;19;20438;-41
2023/02/22 10:17:46;;;;;;;30.80;12.57;;;;;;;7.91;100.00;101114.13;7393286;19;20415;-43
2023/02/22 10:20:24;;;;;;;35.10;13.77;;;;;;;8.01;100.00;101118.13;7391656;19;20498;-43
2023/02/22 10:23:05;;;;;;;25.43;12.33;;;;;;;7.87;100.00;101125.91;7390732;19;21269;-43
2023/02/22 10:25:39;;;;;;;30.93;12.80;;;;;;;7.84;100.00;101125.72;7390971;19;20435;-42
2023/02/22 10:28:17;;;;;;;30.60;12.30;;;;;;;7.83;100.00;101114.56;7392297;19;20400;-43
2023/02/22 10:30:53;;;;;;;28.77;13.30;;;;;;;7.87;100.00;101125.91;7390803;19;21074;-42
2023/02/22 10:33:25;;;;;;;29.50;12.97;;;;;;;7.97;100.00;101120.53;7390030;19;20474;-45
2023/02/22 10:35:55;;;;;;;27.97;12.70;;;;;;;8.00;100.00;101116.34;7391792;19;20753;-40
2023/02/22 10:38:27;;;;;;;33.83;14.07;;;;;;;8.01;100.00;101118.13;7391248;19;20408;-43
2023/02/22 10:40:59;;;;;;;31.37;13.80;;;;;;;7.99;100.00;101115.44;7391865;19;20492;-43
2023/02/22 10:43:32;;;;;;;32.60;13.53;;;;;;;8.03;100.00;101108.81;7390806;19;20422;-44
2023/02/22 10:46:04;;;;;;;28.73;12.07;;;;;;;7.92;100.00;101109.09;7392468;19;21104;-43
2023/02/22 10:48:37;;;;;;;30.27;14.17;;;;;;;7.94;100.00;101104.91;7390914;19;20419;-44
2023/02/22 10:51:09;;;;;;;34.10;13.60;;;;;;;7.94;100.00;101089.50;7393554;19;20432;-43
2023/02/22 10:53:39;;;;;;;30.37;12.87;;;;;;;7.90;100.00;101084.09;7392740;19;20423;-43
2023/02/22 10:56:16;;;;;;;28.57;12.03;;;;;;;8.05;100.00;101073.81;7393140;19;20407;-43
2023/02/22 10:58:52;;;;;;;26.17;12.07;;;;;;;7.97;100.00;101068.22;7390165;19;20463;-43
2023/02/22 11:01:37;;;;;;;27.73;13.00;;;;;;;8.01;100.00;101061.59;7392918;19;20451;-43
2023/02/22 11:04:13;;;;;;;24.70;12.40;;;;;;;8.03;100.00;101055.75;7391142;19;20438;-43
2023/02/22 11:06:44;;;;;;;28.00;12.67;;;;;;;8.08;100.00;101049.19;7394368;19;20866;-43
2023/02/22 11:09:16;;;;;;;25.60;12.37;;;;;;;8.16;100.00;101031.59;7389163;19;20458;-44
2023/02/22 11:11:47;;;;;;;26.87;12.63;;;;;;;8.16;100.00;101036.75;7392052;19;20534;-42
2023/02/22 11:14:27;;;;;;;26.27;12.57;;;;;;;8.23;100.00;101036.31;7390376;19;20455;-42
2023/02/22 11:16:58;;;;;;;25.37;12.43;;;;;;;8.33;100.00;101023.94;7394056;19;20395;-43
2023/02/22 11:19:29;;;;;;;26.03;12.10;;;;;;;8.34;100.00;101021.47;7387396;19;20435;-43
2023/02/22 11:22:01;;;;;;;25.20;11.63;;;;;;;8.31;100.00;101021.28;7392525;19;20811;-41
2023/02/22 11:24:30;;;;;;;27.70;12.60;;;;;;;8.40;100.00;101015.78;7391413;19;20491;-40
2023/02/22 11:27:25;;;;;;;23.93;11.33;;;;;;;8.60;100.00;101011.75;7393655;19;20407;-43
2023/02/22 11:29:58;;;;;;;24.77;11.23;;;;;;;8.64;100.00;101007.66;7396248;19;20962;-43
2023/02/22 11:32:28;;;;;;;25.70;12.37;;;;;;;8.70;100.00;101013.13;7399311;19;20450;-43